sensor_id;sensor_type;location;lat;lon;timestamp;temperature;humidity
37324;DHT22;23205;49.986;18.950;2023-02-11T00:02:53;-1.10;99.90
37324;DHT22;23205;49.986;18.950;2023-02-11T00:07:53;-1.10;99.90
37324;DHT22;23205;49.986;18.950;2023-02-11T00:12:55;-1.10;99.90
37324;DHT22;23205;49.986;18.950;2023-02-11T00:17:56;-1.10;99.90
37324;DHT22;23205;49.986;18.950;2023-02-11T00:22:57;-1.20;99.90
37324;DHT22;23205;49.986;18.950;2023-02-11T00:27:57;-1.20;99.90
37324;DHT22;23205;49.986;18.950;2023-02-11T00:32:58;-1.20;99.90
37324;DHT22;23205;49.986;18.950;2023-02-11T00:37:59;-1.20;99.90
37324;DHT22;23205;49.986;18.950;2023-02-11T00:43:00;-1.10;99.90
37324;DHT22;23205;49.986;18.950;2023-02-11T00:48:01;-1.20;99.90
37324;DHT22;23205;49.986;18.950;2023-02-11T00:53:02;-1.20;99.90
37324;DHT22;23205;49.986;18.950;2023-02-11T00:58:03;-1.30;99.90
37324;DHT22;23205;49.986;18.950;2023-02-11T01:03:04;-1.30;99.90
37324;DHT22;23205;49.986;18.950;2023-02-11T01:08:05;-1.30;99.90
37324;DHT22;23205;49.986;18.950;2023-02-11T01:13:06;-1.40;99.90
37324;DHT22;23205;49.986;18.950;2023-02-11T01:18:07;-1.40;99.90
37324;DHT22;23205;49.986;18.950;2023-02-11T01:23:08;-1.40;99.90
37324;DHT22;23205;49.986;18.950;2023-02-11T01:28:22;-1.50;99.90
37324;DHT22;23205;49.986;18.950;2023-02-11T01:33:23;-1.40;99.90
37324;DHT22;23205;49.986;18.950;2023-02-11T01:38:25;-1.40;99.90
37324;DHT22;23205;49.986;18.950;2023-02-11T01:43:29;-1.40;99.90
37324;DHT22;23205;49.986;18.950;2023-02-11T01:48:38;-1.40;99.90
37324;DHT22;23205;49.986;18.950;2023-02-11T01:53:42;-1.30;99.90
37324;DHT22;23205;49.986;18.950;2023-02-11T01:59:11;-1.20;99.90
37324;DHT22;23205;49.986;18.950;2023-02-11T02:04:16;-1.20;99.90
37324;DHT22;23205;49.986;18.950;2023-02-11T02:09:26;-1.10;99.90
37324;DHT22;23205;49.986;18.950;2023-02-11T02:14:28;-1.50;99.90
37324;DHT22;23205;49.986;18.950;2023-02-11T02:19:57;-0.80;99.90
37324;DHT22;23205;49.986;18.950;2023-02-11T02:35:40;-0.60;99.90
37324;DHT22;23205;49.986;18.950;2023-02-11T02:41:28;-0.60;99.90
37324;DHT22;23205;49.986;18.950;2023-02-11T02:46:23;-0.60;99.90
37324;DHT22;23205;49.986;18.950;2023-02-11T02:56:53;-0.40;99.90
37324;DHT22;23205;49.986;18.950;2023-02-11T03:12:15;-1.00;99.90
37324;DHT22;23205;49.986;18.950;2023-02-11T03:17:17;-0.50;99.90
37324;DHT22;23205;49.986;18.950;2023-02-11T03:22:31;-0.40;99.90
37324;DHT22;23205;49.986;18.950;2023-02-11T03:27:48;-0.50;99.90
37324;DHT22;23205;49.986;18.950;2023-02-11T03:38:05;-0.40;99.90
37324;DHT22;23205;49.986;18.950;2023-02-11T03:48:17;-0.30;99.90
37324;DHT22;23205;49.986;18.950;2023-02-11T03:53:21;-0.10;99.90
37324;DHT22;23205;49.986;18.950;2023-02-11T03:58:22;0.00;99.90
37324;DHT22;23205;49.986;18.950;2023-02-11T04:03:23;0.10;99.90
37324;DHT22;23205;49.986;18.950;2023-02-11T04:08:24;0.20;99.90
37324;DHT22;23205;49.986;18.950;2023-02-11T04:13:25;0.30;99.90
37324;DHT22;23205;49.986;18.950;2023-02-11T04:18:26;0.40;99.90
37324;DHT22;23205;49.986;18.950;2023-02-11T04:23:26;0.40;99.90
37324;DHT22;23205;49.986;18.950;2023-02-11T04:28:27;0.40;99.90
37324;DHT22;23205;49.986;18.950;2023-02-11T04:33:29;0.50;99.90
37324;DHT22;23205;49.986;18.950;2023-02-11T04:38:30;0.60;99.90
37324;DHT22;23205;49.986;18.950;2023-02-11T04:43:30;0.60;99.90
37324;DHT22;23205;49.986;18.950;2023-02-11T04:48:31;0.70;99.90
37324;DHT22;23205;49.986;18.950;2023-02-11T04:53:32;0.70;99.90
37324;DHT22;23205;49.986;18.950;2023-02-11T04:58:33;0.70;99.90
37324;DHT22;23205;49.986;18.950;2023-02-11T05:03:34;0.80;99.90
37324;DHT22;23205;49.986;18.950;2023-02-11T05:08:35;0.80;99.90
37324;DHT22;23205;49.986;18.950;2023-02-11T05:13:36;0.80;99.90
37324;DHT22;23205;49.986;18.950;2023-02-11T05:18:38;0.80;99.90
37324;DHT22;23205;49.986;18.950;2023-02-11T05:23:39;0.80;99.90
37324;DHT22;23205;49.986;18.950;2023-02-11T05:28:40;0.80;99.90
37324;DHT22;23205;49.986;18.950;2023-02-11T05:33:42;0.70;99.90
37324;DHT22;23205;49.986;18.950;2023-02-11T05:38:42;0.80;99.90
37324;DHT22;23205;49.986;18.950;2023-02-11T05:43:43;0.70;99.90
37324;DHT22;23205;49.986;18.950;2023-02-11T05:48:44;0.80;99.90
37324;DHT22;23205;49.986;18.950;2023-02-11T05:53:45;0.80;99.90
37324;DHT22;23205;49.986;18.950;2023-02-11T05:58:46;0.80;99.90
37324;DHT22;23205;49.986;18.950;2023-02-11T06:03:47;0.80;99.90
37324;DHT22;23205;49.986;18.950;2023-02-11T06:08:49;0.90;99.90
37324;DHT22;23205;49.986;18.950;2023-02-11T06:13:50;0.90;99.90
37324;DHT22;23205;49.986;18.950;2023-02-11T06:18:51;1.00;99.90
37324;DHT22;23205;49.986;18.950;2023-02-11T06:23:52;0.80;99.90
37324;DHT22;23205;49.986;18.950;2023-02-11T06:28:52;0.90;99.90
37324;DHT22;23205;49.986;18.950;2023-02-11T06:33:53;0.90;99.90
37324;DHT22;23205;49.986;18.950;2023-02-11T06:38:54;0.90;99.90
37324;DHT22;23205;49.986;18.950;2023-02-11T06:43:55;0.90;99.90
37324;DHT22;23205;49.986;18.950;2023-02-11T06:48:56;1.00;99.90
37324;DHT22;23205;49.986;18.950;2023-02-11T06:53:57;1.00;99.90
37324;DHT22;23205;49.986;18.950;2023-02-11T06:58:58;1.10;99.90
37324;DHT22;23205;49.986;18.950;2023-02-11T07:03:59;1.10;99.90
37324;DHT22;23205;49.986;18.950;2023-02-11T07:09:00;1.30;99.90
37324;DHT22;23205;49.986;18.950;2023-02-11T07:14:04;1.30;99.90
37324;DHT22;23205;49.986;18.950;2023-02-11T07:19:05;1.40;99.90
37324;DHT22;23205;49.986;18.950;2023-02-11T07:24:09;1.50;99.90
37324;DHT22;23205;49.986;18.950;2023-02-11T07:29:09;1.60;99.90
37324;DHT22;23205;49.986;18.950;2023-02-11T07:34:10;1.60;99.90
37324;DHT22;23205;49.986;18.950;2023-02-11T07:39:11;1.60;99.90
37324;DHT22;23205;49.986;18.950;2023-02-11T07:44:13;0.90;99.90
37324;DHT22;23205;49.986;18.950;2023-02-11T07:49:14;1.60;99.90
37324;DHT22;23205;49.986;18.950;2023-02-11T07:54:16;1.70;99.90
37324;DHT22;23205;49.986;18.950;2023-02-11T07:59:17;1.70;99.90
37324;DHT22;23205;49.986;18.950;2023-02-11T08:04:18;1.80;99.90
37324;DHT22;23205;49.986;18.950;2023-02-11T08:09:19;2.10;99.90
37324;DHT22;23205;49.986;18.950;2023-02-11T08:14:20;2.30;99.90
37324;DHT22;23205;49.986;18.950;2023-02-11T08:19:22;2.60;99.90
37324;DHT22;23205;49.986;18.950;2023-02-11T08:24:22;2.90;99.90
37324;DHT22;23205;49.986;18.950;2023-02-11T08:29:23;3.20;99.90
37324;DHT22;23205;49.986;18.950;2023-02-11T08:34:24;3.60;99.90
37324;DHT22;23205;49.986;18.950;2023-02-11T08:39:25;3.30;99.90
37324;DHT22;23205;49.986;18.950;2023-02-11T08:44:26;3.50;99.90
37324;DHT22;23205;49.986;18.950;2023-02-11T08:49:27;3.60;99.90
37324;DHT22;23205;49.986;18.950;2023-02-11T08:54:30;3.30;99.90
37324;DHT22;23205;49.986;18.950;2023-02-11T08:59:31;3.40;99.90
37324;DHT22;23205;49.986;18.950;2023-02-11T09:04:32;3.40;99.90
37324;DHT22;23205;49.986;18.950;2023-02-11T09:09:34;3.90;99.90
37324;DHT22;23205;49.986;18.950;2023-02-11T09:14:35;4.00;99.90
37324;DHT22;23205;49.986;18.950;2023-02-11T09:19:36;4.10;99.90
37324;DHT22;23205;49.986;18.950;2023-02-11T09:24:36;3.80;99.90
37324;DHT22;23205;49.986;18.950;2023-02-11T09:29:37;3.60;99.90
37324;DHT22;23205;49.986;18.950;2023-02-11T09:34:38;3.90;99.90
37324;DHT22;23205;49.986;18.950;2023-02-11T09:39:39;4.10;99.90
37324;DHT22;23205;49.986;18.950;2023-02-11T09:44:43;4.10;99.90
37324;DHT22;23205;49.986;18.950;2023-02-11T09:49:49;4.20;99.90
37324;DHT22;23205;49.986;18.950;2023-02-11T09:54:56;4.50;99.10
37324;DHT22;23205;49.986;18.950;2023-02-11T09:59:58;5.00;96.60
37324;DHT22;23205;49.986;18.950;2023-02-11T10:25:40;4.80;97.40
37324;DHT22;23205;49.986;18.950;2023-02-11T10:30:43;4.70;97.50
37324;DHT22;23205;49.986;18.950;2023-02-11T10:35:45;4.70;97.60
37324;DHT22;23205;49.986;18.950;2023-02-11T10:40:46;5.70;95.00
37324;DHT22;23205;49.986;18.950;2023-02-11T10:45:52;5.80;91.90
37324;DHT22;23205;49.986;18.950;2023-02-11T10:51:21;6.50;90.70
37324;DHT22;23205;49.986;18.950;2023-02-11T10:56:26;8.60;80.70
37324;DHT22;23205;49.986;18.950;2023-02-11T11:06:43;7.30;76.50
37324;DHT22;23205;49.986;18.950;2023-02-11T11:11:51;6.10;87.60
37324;DHT22;23205;49.986;18.950;2023-02-11T11:16:54;6.00;89.60
37324;DHT22;23205;49.986;18.950;2023-02-11T11:21:55;7.60;83.10
37324;DHT22;23205;49.986;18.950;2023-02-11T11:26:59;8.70;75.10
37324;DHT22;23205;49.986;18.950;2023-02-11T11:37:29;7.40;78.20
37324;DHT22;23205;49.986;18.950;2023-02-11T11:42:33;7.80;78.80
37324;DHT22;23205;49.986;18.950;2023-02-11T11:53:03;5.40;91.70
37324;DHT22;23205;49.986;18.950;2023-02-11T11:58:10;4.90;96.70
37324;DHT22;23205;49.986;18.950;2023-02-11T12:51:05;4.60;99.90
37324;DHT22;23205;49.986;18.950;2023-02-11T13:01:37;4.50;99.90
37324;DHT22;23205;49.986;18.950;2023-02-11T13:06:44;4.30;99.90
37324;DHT22;23205;49.986;18.950;2023-02-11T13:11:50;4.30;99.90
37324;DHT22;23205;49.986;18.950;2023-02-11T13:16:54;4.20;99.90
37324;DHT22;23205;49.986;18.950;2023-02-11T13:22:04;4.10;99.90
37324;DHT22;23205;49.986;18.950;2023-02-11T13:43:21;4.00;99.90
37324;DHT22;23205;49.986;18.950;2023-02-11T13:48:50;3.90;99.90
37324;DHT22;23205;49.986;18.950;2023-02-11T13:53:55;3.80;99.90
37324;DHT22;23205;49.986;18.950;2023-02-11T13:58:59;3.70;99.90
37324;DHT22;23205;49.986;18.950;2023-02-11T14:09:42;3.70;99.90
37324;DHT22;23205;49.986;18.950;2023-02-11T14:15:21;3.60;99.90
37324;DHT22;23205;49.986;18.950;2023-02-11T14:20:40;3.60;99.90
37324;DHT22;23205;49.986;18.950;2023-02-11T14:25:43;3.50;99.90
37324;DHT22;23205;49.986;18.950;2023-02-11T14:31:02;3.50;99.90
37324;DHT22;23205;49.986;18.950;2023-02-11T14:36:17;3.60;99.90
37324;DHT22;23205;49.986;18.950;2023-02-11T14:41:25;3.60;99.90
37324;DHT22;23205;49.986;18.950;2023-02-11T14:46:27;3.60;99.90
37324;DHT22;23205;49.986;18.950;2023-02-11T14:51:34;3.60;99.90
37324;DHT22;23205;49.986;18.950;2023-02-11T14:56:36;3.60;99.90
37324;DHT22;23205;49.986;18.950;2023-02-11T15:01:41;3.60;99.90
37324;DHT22;23205;49.986;18.950;2023-02-11T15:06:46;3.60;99.90
37324;DHT22;23205;49.986;18.950;2023-02-11T15:11:50;3.70;99.90
37324;DHT22;23205;49.986;18.950;2023-02-11T15:16:53;3.60;99.90
37324;DHT22;23205;49.986;18.950;2023-02-11T15:21:55;3.50;99.90
37324;DHT22;23205;49.986;18.950;2023-02-11T15:32:21;3.50;99.90
37324;DHT22;23205;49.986;18.950;2023-02-11T15:37:28;3.60;99.90
37324;DHT22;23205;49.986;18.950;2023-02-11T15:42:30;3.40;99.90
37324;DHT22;23205;49.986;18.950;2023-02-11T15:47:31;3.40;99.90
37324;DHT22;23205;49.986;18.950;2023-02-11T15:52:32;3.40;99.90
37324;DHT22;23205;49.986;18.950;2023-02-11T15:57:33;3.40;99.90
37324;DHT22;23205;49.986;18.950;2023-02-11T16:02:35;3.30;99.90
37324;DHT22;23205;49.986;18.950;2023-02-11T16:18:04;3.10;99.90
37324;DHT22;23205;49.986;18.950;2023-02-11T16:23:33;3.00;99.90
37324;DHT22;23205;49.986;18.950;2023-02-11T16:28:35;2.80;99.90
37324;DHT22;23205;49.986;18.950;2023-02-11T16:33:37;2.70;99.90
37324;DHT22;23205;49.986;18.950;2023-02-11T16:38:37;2.70;99.90
37324;DHT22;23205;49.986;18.950;2023-02-11T16:43:38;2.60;99.90
37324;DHT22;23205;49.986;18.950;2023-02-11T16:48:39;2.60;99.90
37324;DHT22;23205;49.986;18.950;2023-02-11T16:53:40;2.60;99.90
37324;DHT22;23205;49.986;18.950;2023-02-11T16:58:42;2.50;99.90
37324;DHT22;23205;49.986;18.950;2023-02-11T17:03:43;2.50;99.90
37324;DHT22;23205;49.986;18.950;2023-02-11T17:08:45;2.40;99.90
37324;DHT22;23205;49.986;18.950;2023-02-11T17:13:47;2.40;99.90
37324;DHT22;23205;49.986;18.950;2023-02-11T17:18:48;2.40;99.90
37324;DHT22;23205;49.986;18.950;2023-02-11T17:23:49;2.30;99.90
37324;DHT22;23205;49.986;18.950;2023-02-11T17:28:50;2.40;99.90
37324;DHT22;23205;49.986;18.950;2023-02-11T17:33:51;2.30;99.90
37324;DHT22;23205;49.986;18.950;2023-02-11T17:38:53;2.30;99.90
37324;DHT22;23205;49.986;18.950;2023-02-11T17:43:58;2.40;99.90
37324;DHT22;23205;49.986;18.950;2023-02-11T17:48:59;2.40;99.90
37324;DHT22;23205;49.986;18.950;2023-02-11T17:54:04;2.40;99.90
37324;DHT22;23205;49.986;18.950;2023-02-11T17:59:06;2.40;99.90
37324;DHT22;23205;49.986;18.950;2023-02-11T18:04:17;2.40;99.90
37324;DHT22;23205;49.986;18.950;2023-02-11T18:09:19;2.50;99.90
37324;DHT22;23205;49.986;18.950;2023-02-11T18:14:21;2.50;99.90
37324;DHT22;23205;49.986;18.950;2023-02-11T18:19:22;2.40;99.90
37324;DHT22;23205;49.986;18.950;2023-02-11T18:24:25;2.50;99.90
37324;DHT22;23205;49.986;18.950;2023-02-11T18:29:26;2.50;99.90
37324;DHT22;23205;49.986;18.950;2023-02-11T18:34:27;2.50;99.90
37324;DHT22;23205;49.986;18.950;2023-02-11T18:39:28;2.60;99.90
37324;DHT22;23205;49.986;18.950;2023-02-11T18:44:29;2.60;99.90
37324;DHT22;23205;49.986;18.950;2023-02-11T18:49:30;2.60;99.90
37324;DHT22;23205;49.986;18.950;2023-02-11T18:54:32;2.50;99.90
37324;DHT22;23205;49.986;18.950;2023-02-11T18:59:33;2.60;99.90
37324;DHT22;23205;49.986;18.950;2023-02-11T19:04:35;2.60;99.90
37324;DHT22;23205;49.986;18.950;2023-02-11T19:09:36;2.70;99.90
37324;DHT22;23205;49.986;18.950;2023-02-11T19:14:37;2.70;99.90
37324;DHT22;23205;49.986;18.950;2023-02-11T19:19:38;2.70;99.90
37324;DHT22;23205;49.986;18.950;2023-02-11T19:24:40;2.80;99.90
37324;DHT22;23205;49.986;18.950;2023-02-11T19:29:41;2.80;99.90
37324;DHT22;23205;49.986;18.950;2023-02-11T19:34:42;2.80;99.90
37324;DHT22;23205;49.986;18.950;2023-02-11T19:39:43;2.80;99.90
37324;DHT22;23205;49.986;18.950;2023-02-11T19:44:44;2.90;99.90
37324;DHT22;23205;49.986;18.950;2023-02-11T19:49:45;2.90;99.90
37324;DHT22;23205;49.986;18.950;2023-02-11T19:54:46;2.80;99.90
37324;DHT22;23205;49.986;18.950;2023-02-11T19:59:47;2.90;99.90
37324;DHT22;23205;49.986;18.950;2023-02-11T20:04:49;2.90;99.90
37324;DHT22;23205;49.986;18.950;2023-02-11T20:09:49;2.90;99.90
37324;DHT22;23205;49.986;18.950;2023-02-11T20:14:53;3.00;99.90
37324;DHT22;23205;49.986;18.950;2023-02-11T20:19:54;3.00;99.90
37324;DHT22;23205;49.986;18.950;2023-02-11T20:24:55;3.00;99.90
37324;DHT22;23205;49.986;18.950;2023-02-11T20:29:55;3.10;99.90
37324;DHT22;23205;49.986;18.950;2023-02-11T20:34:56;3.20;99.90
37324;DHT22;23205;49.986;18.950;2023-02-11T20:39:57;3.20;99.90
37324;DHT22;23205;49.986;18.950;2023-02-11T20:44:58;3.40;99.90
37324;DHT22;23205;49.986;18.950;2023-02-11T20:49:59;3.30;99.90
37324;DHT22;23205;49.986;18.950;2023-02-11T20:55:00;3.30;99.90
37324;DHT22;23205;49.986;18.950;2023-02-11T21:00:01;3.20;99.90
37324;DHT22;23205;49.986;18.950;2023-02-11T21:05:02;3.40;99.90
37324;DHT22;23205;49.986;18.950;2023-02-11T21:10:04;3.40;99.90
37324;DHT22;23205;49.986;18.950;2023-02-11T21:15:06;3.40;99.90
37324;DHT22;23205;49.986;18.950;2023-02-11T21:20:09;3.50;99.90
37324;DHT22;23205;49.986;18.950;2023-02-11T21:25:10;3.40;99.90
37324;DHT22;23205;49.986;18.950;2023-02-11T21:30:11;3.50;99.90
37324;DHT22;23205;49.986;18.950;2023-02-11T21:35:16;3.50;99.90
37324;DHT22;23205;49.986;18.950;2023-02-11T21:40:17;3.60;99.90
37324;DHT22;23205;49.986;18.950;2023-02-11T21:45:18;3.70;99.90
37324;DHT22;23205;49.986;18.950;2023-02-11T21:50:19;3.70;99.90
37324;DHT22;23205;49.986;18.950;2023-02-11T21:55:20;3.70;99.90
37324;DHT22;23205;49.986;18.950;2023-02-11T22:00:21;3.70;99.90
37324;DHT22;23205;49.986;18.950;2023-02-11T22:05:22;3.80;99.90
37324;DHT22;23205;49.986;18.950;2023-02-11T22:10:23;3.70;99.90
37324;DHT22;23205;49.986;18.950;2023-02-11T22:15:25;3.70;99.90
37324;DHT22;23205;49.986;18.950;2023-02-11T22:20:26;3.80;99.90
37324;DHT22;23205;49.986;18.950;2023-02-11T22:25:27;3.80;99.90
37324;DHT22;23205;49.986;18.950;2023-02-11T22:30:28;3.80;99.90
37324;DHT22;23205;49.986;18.950;2023-02-11T22:35:29;3.90;99.90
37324;DHT22;23205;49.986;18.950;2023-02-11T22:40:30;4.00;99.90
37324;DHT22;23205;49.986;18.950;2023-02-11T22:45:32;3.90;99.90
37324;DHT22;23205;49.986;18.950;2023-02-11T22:50:34;4.00;99.90
37324;DHT22;23205;49.986;18.950;2023-02-11T22:55:36;4.70;99.90
37324;DHT22;23205;49.986;18.950;2023-02-11T23:00:40;4.00;99.90
37324;DHT22;23205;49.986;18.950;2023-02-11T23:05:41;4.00;99.90
37324;DHT22;23205;49.986;18.950;2023-02-11T23:10:42;4.00;99.90
37324;DHT22;23205;49.986;18.950;2023-02-11T23:15:44;4.00;99.90
37324;DHT22;23205;49.986;18.950;2023-02-11T23:20:45;4.00;99.90
37324;DHT22;23205;49.986;18.950;2023-02-11T23:25:46;4.00;99.90
37324;DHT22;23205;49.986;18.950;2023-02-11T23:30:47;4.00;99.90
37324;DHT22;23205;49.986;18.950;2023-02-11T23:35:48;4.00;99.90
37324;DHT22;23205;49.986;18.950;2023-02-11T23:40:49;4.00;99.90
37324;DHT22;23205;49.986;18.950;2023-02-11T23:45:50;3.90;99.90
37324;DHT22;23205;49.986;18.950;2023-02-11T23:50:51;4.00;99.90
37324;DHT22;23205;49.986;18.950;2023-02-11T23:55:52;4.10;99.90
